createdAt,value
2022-11-06T00:00:31.039Z,98838.80
2022-11-06T00:01:33.564Z,98838.45
2022-11-06T00:02:35.401Z,98839.10
2022-11-06T00:03:37.775Z,98840.81
2022-11-06T00:04:39.460Z,98845.79
2022-11-06T00:06:01.063Z,98847.13
2022-11-06T00:07:02.849Z,98843.41
2022-11-06T00:08:04.739Z,98846.28
2022-11-06T00:09:10.462Z,98844.27
2022-11-06T00:10:13.719Z,98845.91
2022-11-06T00:11:17.681Z,98849.35
2022-11-06T00:12:19.444Z,98849.02
2022-11-06T00:13:21.217Z,98849.80
2022-11-06T00:14:23.110Z,98851.56
2022-11-06T00:15:24.840Z,98851.35
2022-11-06T00:16:26.659Z,98856.90
2022-11-06T00:17:28.964Z,98856.98
2022-11-06T00:18:30.929Z,98858.04
2022-11-06T00:19:32.666Z,98858.44
2022-11-06T00:20:34.490Z,98857.99
2022-11-06T00:21:37.115Z,98861.38
2022-11-06T00:22:38.809Z,98860.52
2022-11-06T00:23:41.251Z,98860.29
2022-11-06T00:24:42.993Z,98861.70
2022-11-06T00:25:44.711Z,98862.71
2022-11-06T00:26:49.926Z,98861.98
2022-11-06T00:27:55.869Z,98865.17
2022-11-06T00:29:00.287Z,98864.42
2022-11-06T00:30:05.402Z,98863.42
2022-11-06T00:31:12.284Z,98869.39
2022-11-06T00:32:14.093Z,98870.97
2022-11-06T00:33:15.857Z,98872.11
2022-11-06T00:34:17.786Z,98868.47
2022-11-06T00:35:19.493Z,98871.41
2022-11-06T00:36:23.073Z,98867.57
2022-11-06T00:37:24.894Z,98868.48
2022-11-06T00:38:26.608Z,98867.13
2022-11-06T00:39:28.343Z,98868.66
2022-11-06T00:40:30.112Z,98869.14
2022-11-06T00:41:31.807Z,98869.56
2022-11-06T00:42:35.796Z,98870.56
2022-11-06T00:43:37.777Z,98871.89
2022-11-06T00:44:39.475Z,98869.40
2022-11-06T00:45:41.260Z,98871.95
2022-11-06T00:46:43.147Z,98872.52
2022-11-06T00:47:44.839Z,98873.95
2022-11-06T00:48:47.146Z,98872.95
2022-11-06T00:49:49.265Z,98873.42
2022-11-06T00:50:51.002Z,98876.90
2022-11-06T00:51:52.751Z,98876.58
2022-11-06T00:52:55.352Z,98874.98
2022-11-06T00:53:59.824Z,98879.73
2022-11-06T00:55:01.833Z,98876.95
2022-11-06T00:56:09.766Z,98878.50
2022-11-06T00:57:11.459Z,98879.37
2022-11-06T00:58:13.265Z,98880.34
2022-11-06T00:59:15.342Z,98882.56
2022-11-06T01:00:20.762Z,98885.31
2022-11-06T01:01:28.911Z,98884.44
2022-11-06T01:02:30.859Z,98887.23
2022-11-06T01:03:32.616Z,98889.88
2022-11-06T01:04:34.369Z,98889.00
2022-11-06T01:05:36.218Z,98887.73
2022-11-06T01:06:43.514Z,98887.47
2022-11-06T01:07:45.268Z,98888.33
2022-11-06T01:08:48.110Z,98884.96
2022-11-06T01:09:49.868Z,98885.20
2022-11-06T01:10:53.200Z,98884.58
2022-11-06T01:12:14.337Z,98881.46
2022-11-06T01:13:17.217Z,98887.13
2022-11-06T01:14:20.683Z,98884.70
2022-11-06T01:15:22.415Z,98883.25
2022-11-06T01:16:25.545Z,98884.48
2022-11-06T01:17:28.926Z,98879.34
2022-11-06T01:18:30.828Z,98883.02
2022-11-06T01:19:32.642Z,98883.30
2022-11-06T01:20:34.345Z,98886.67
2022-11-06T01:21:39.060Z,98888.38
2022-11-06T01:22:40.951Z,98885.65
2022-11-06T01:23:43.907Z,98884.39
2022-11-06T01:24:45.853Z,98887.90
2022-11-06T01:26:01.759Z,98888.37
2022-11-06T01:28:26.301Z,98887.00
2022-11-06T01:29:28.124Z,98888.16
2022-11-06T01:30:29.841Z,98887.29
2022-11-06T01:31:33.466Z,98882.74
2022-11-06T01:32:35.191Z,98887.23
2022-11-06T01:33:37.188Z,98884.02
2022-11-06T01:34:39.105Z,98886.01
2022-11-06T01:35:49.000Z,98885.95
2022-11-06T01:36:50.660Z,98887.04
2022-11-06T01:37:52.438Z,98887.52
2022-11-06T01:38:58.529Z,98887.59
2022-11-06T01:40:00.363Z,98888.63
2022-11-06T01:41:02.085Z,98893.57
2022-11-06T01:42:03.957Z,98894.02
2022-11-06T01:43:14.697Z,98894.30
2022-11-06T01:44:41.201Z,98898.30
2022-11-06T01:45:47.833Z,98890.98
2022-11-06T01:46:49.558Z,98894.63
2022-11-06T01:47:51.856Z,98895.48
2022-11-06T01:49:00.332Z,98897.01
2022-11-06T01:50:08.465Z,98899.08
2022-11-06T01:51:13.451Z,98900.20
2022-11-06T01:52:17.396Z,98899.23
2022-11-06T01:53:19.704Z,98898.34
2022-11-06T01:54:24.562Z,98899.90
2022-11-06T01:55:32.777Z,98900.42
2022-11-06T01:56:37.606Z,98903.97
2022-11-06T01:57:39.476Z,98903.83
2022-11-06T01:58:44.339Z,98902.29
2022-11-06T01:59:48.193Z,98905.81
2022-11-06T02:00:50.813Z,98904.77
2022-11-06T02:01:52.969Z,98903.02
2022-11-06T02:02:55.000Z,98903.67
2022-11-06T02:04:03.809Z,98903.66
2022-11-06T02:05:06.387Z,98901.80
2022-11-06T02:06:10.004Z,98903.87
2022-11-06T02:07:13.097Z,98904.59
2022-11-06T02:08:18.108Z,98906.52
2022-11-06T02:09:20.880Z,98908.72
2022-11-06T02:10:23.100Z,98910.30
2022-11-06T02:11:25.053Z,98910.11
2022-11-06T02:12:57.702Z,98910.09
2022-11-06T02:14:14.693Z,98910.52
2022-11-06T02:15:43.142Z,98906.10
2022-11-06T02:17:09.400Z,98906.36
2022-11-06T02:18:25.447Z,98906.54
2022-11-06T02:19:46.936Z,98904.40
2022-11-06T02:21:24.925Z,98906.55
2022-11-06T02:22:56.797Z,98906.09
2022-11-06T02:24:21.624Z,98905.84
2022-11-06T02:25:52.977Z,98912.05
2022-11-06T02:27:22.205Z,98912.27
2022-11-06T02:28:35.355Z,98913.48
2022-11-06T02:29:55.659Z,98910.94
2022-11-06T02:31:05.337Z,98907.65
2022-11-06T02:32:18.070Z,98912.67
2022-11-06T02:33:37.601Z,98913.14
2022-11-06T02:34:55.664Z,98912.50
2022-11-06T02:36:23.571Z,98911.55
2022-11-06T02:37:36.581Z,98909.83
2022-11-06T02:38:46.856Z,98909.39
2022-11-06T02:39:55.524Z,98909.84
2022-11-06T02:41:04.747Z,98914.23
2022-11-06T02:42:11.659Z,98915.95
2022-11-06T02:43:17.388Z,98916.23
2022-11-06T02:44:25.776Z,98917.08
2022-11-06T02:45:32.626Z,98918.04
2022-11-06T02:46:48.068Z,98916.05
2022-11-06T02:47:54.630Z,98919.78
2022-11-06T02:49:04.142Z,98918.79
2022-11-06T02:50:15.354Z,98917.05
2022-11-06T02:51:25.464Z,98920.56
2022-11-06T02:52:34.467Z,98921.40
2022-11-06T02:53:41.105Z,98918.11
2022-11-06T02:54:51.305Z,98922.27
2022-11-06T02:56:00.407Z,98921.30
2022-11-06T02:57:08.935Z,98927.83
2022-11-06T02:58:33.621Z,98927.92
2022-11-06T03:00:05.712Z,98929.52
2022-11-06T03:01:25.336Z,98927.88
2022-11-06T03:02:56.145Z,98933.02
2022-11-06T03:04:10.802Z,98929.08
2022-11-06T03:05:21.742Z,98929.23
2022-11-06T03:06:29.875Z,98932.80
2022-11-06T03:07:39.474Z,98934.56
2022-11-06T03:09:14.647Z,98936.53
2022-11-06T03:10:17.394Z,98935.83
2022-11-06T03:11:25.184Z,98939.83
2022-11-06T03:12:38.724Z,98935.73
2022-11-06T03:13:54.292Z,98936.17
2022-11-06T03:15:05.759Z,98934.73
2022-11-06T03:16:23.984Z,98935.16
2022-11-06T03:17:31.655Z,98935.74
2022-11-06T03:19:05.175Z,98935.58
2022-11-06T03:20:29.781Z,98937.11
2022-11-06T03:22:05.054Z,98936.67
2022-11-06T03:23:18.471Z,98936.09
2022-11-06T03:24:31.708Z,98936.77
2022-11-06T03:25:47.535Z,98936.02
2022-11-06T03:26:53.440Z,98937.63
2022-11-06T03:28:15.320Z,98940.42
2022-11-06T03:29:19.880Z,98939.52
2022-11-06T03:30:21.967Z,98939.46
2022-11-06T03:31:36.721Z,98940.19
2022-11-06T03:32:54.032Z,98943.48
2022-11-06T03:34:05.293Z,98939.13
2022-11-06T03:35:30.605Z,98941.91
2022-11-06T03:36:44.342Z,98944.52
2022-11-06T03:37:57.923Z,98944.95
2022-11-06T03:39:06.300Z,98944.27
2022-11-06T03:40:15.498Z,98949.64
2022-11-06T03:41:36.773Z,98946.19
2022-11-06T03:42:41.734Z,98945.44
2022-11-06T03:43:47.756Z,98944.34
2022-11-06T03:44:59.945Z,98946.20
2022-11-06T03:46:06.016Z,98942.66
2022-11-06T03:47:24.792Z,98944.70
2022-11-06T03:48:34.401Z,98944.20
2022-11-06T03:49:43.263Z,98948.59
2022-11-06T03:51:03.410Z,98950.08
2022-11-06T03:52:43.303Z,98950.28
2022-11-06T03:53:52.982Z,98951.33
2022-11-06T03:55:07.777Z,98946.65
2022-11-06T03:56:33.767Z,98949.58
2022-11-06T03:58:01.680Z,98948.61
2022-11-06T03:59:08.458Z,98950.92
2022-11-06T04:00:12.027Z,98949.83
2022-11-06T04:01:19.046Z,98949.27
2022-11-06T04:02:26.075Z,98950.18
2022-11-06T04:03:51.948Z,98951.92
2022-11-06T04:05:10.096Z,98953.90
2022-11-06T04:06:32.365Z,98955.52
2022-11-06T04:07:41.714Z,98958.96
2022-11-06T04:09:05.540Z,98954.94
2022-11-06T04:10:30.683Z,98954.91
2022-11-06T04:11:55.147Z,98957.83
2022-11-06T04:13:47.016Z,98955.69
2022-11-06T04:14:54.741Z,98954.30
2022-11-06T04:15:56.832Z,98954.75
2022-11-06T04:17:03.964Z,98954.41
2022-11-06T04:18:17.692Z,98953.08
2022-11-06T04:19:22.725Z,98955.14
2022-11-06T04:21:01.680Z,98954.64
2022-11-06T04:22:39.045Z,98953.59
2022-11-06T04:23:46.632Z,98953.58
2022-11-06T04:25:21.413Z,98954.58
2022-11-06T04:26:35.723Z,98953.00
2022-11-06T04:27:54.430Z,98945.97
2022-11-06T04:29:18.220Z,98945.70
2022-11-06T04:30:20.083Z,98950.30
2022-11-06T04:31:43.234Z,98950.71
2022-11-06T04:33:00.686Z,98949.66
2022-11-06T04:34:24.103Z,98952.88
2022-11-06T04:35:37.564Z,98950.23
2022-11-06T04:36:49.029Z,98951.05
2022-11-06T04:38:29.142Z,98949.33
2022-11-06T04:39:51.986Z,98943.83
2022-11-06T04:40:56.337Z,98942.59
2022-11-06T04:42:19.780Z,98941.28
2022-11-06T04:43:31.564Z,98940.66
2022-11-06T04:44:39.865Z,98941.14
2022-11-06T04:45:48.989Z,98940.19
2022-11-06T04:47:04.920Z,98936.83
2022-11-06T04:48:08.922Z,98938.63
2022-11-06T04:49:13.263Z,98935.89
2022-11-06T04:50:19.878Z,98939.59
2022-11-06T04:51:28.532Z,98937.88
2022-11-06T04:52:30.383Z,98936.86
2022-11-06T04:53:34.248Z,98934.36
2022-11-06T04:54:36.274Z,98936.96
2022-11-06T04:55:46.820Z,98938.16
2022-11-06T04:56:48.565Z,98938.62
2022-11-06T04:57:50.292Z,98939.08
2022-11-06T04:58:53.537Z,98939.84
2022-11-06T04:59:56.921Z,98935.25
2022-11-06T05:00:58.778Z,98936.19
2022-11-06T05:02:00.935Z,98932.90
2022-11-06T05:03:02.783Z,98935.77
2022-11-06T05:04:04.596Z,98938.19
2022-11-06T05:05:06.781Z,98940.69
2022-11-06T05:06:08.903Z,98939.88
2022-11-06T05:07:13.880Z,98943.50
2022-11-06T05:08:20.884Z,98937.57
2022-11-06T05:09:23.831Z,98942.14
2022-11-06T05:10:25.780Z,98940.79
2022-11-06T05:11:27.462Z,98941.45
2022-11-06T05:12:29.433Z,98942.05
2022-11-06T05:13:31.170Z,98940.30
2022-11-06T05:14:33.386Z,98938.94
2022-11-06T05:15:35.602Z,98943.83
2022-11-06T05:16:37.558Z,98940.20
2022-11-06T05:17:39.300Z,98941.44
2022-11-06T05:18:41.184Z,98944.33
2022-11-06T05:19:42.909Z,98942.80
2022-11-06T05:20:44.709Z,98941.66
2022-11-06T05:22:45.350Z,98940.52
2022-11-06T05:23:47.543Z,98945.05
2022-11-06T05:24:49.225Z,98944.35
2022-11-06T05:25:50.982Z,98945.20
2022-11-06T05:26:58.860Z,98945.61
2022-11-06T05:28:05.775Z,98945.73
2022-11-06T05:29:07.584Z,98947.52
2022-11-06T05:30:09.782Z,98944.82
2022-11-06T05:31:11.633Z,98946.54
2022-11-06T05:32:13.413Z,98949.80
2022-11-06T05:33:15.149Z,98949.26
2022-11-06T05:34:16.891Z,98947.81
2022-11-06T05:35:20.710Z,98944.87
2022-11-06T05:36:22.548Z,98952.43
2022-11-06T05:37:24.738Z,98949.80
2022-11-06T05:38:26.506Z,98948.96
2022-11-06T05:39:28.429Z,98949.00
2022-11-06T05:40:30.888Z,98948.26
2022-11-06T05:41:32.718Z,98948.44
2022-11-06T05:42:38.132Z,98947.23
2022-11-06T05:43:39.914Z,98947.19
2022-11-06T05:44:41.606Z,98950.19
2022-11-06T05:45:43.356Z,98950.49
2022-11-06T05:46:49.643Z,98948.92
2022-11-06T05:47:51.913Z,98950.36
2022-11-06T05:48:53.672Z,98952.42
2022-11-06T05:49:55.410Z,98952.73
2022-11-06T05:51:02.174Z,98948.94
2022-11-06T05:52:04.104Z,98951.35
2022-11-06T05:53:05.895Z,98951.44
2022-11-06T05:54:07.623Z,98954.14
2022-11-06T05:55:14.510Z,98952.67
2022-11-06T05:56:17.226Z,98955.59
2022-11-06T05:57:19.062Z,98956.05
2022-11-06T05:58:20.779Z,98956.90
2022-11-06T05:59:22.504Z,98950.83
2022-11-06T06:00:24.236Z,98955.61
2022-11-06T06:01:26.071Z,98956.61
2022-11-06T06:02:27.907Z,98957.00
2022-11-06T06:03:29.788Z,98956.98
2022-11-06T06:04:31.560Z,98956.61
2022-11-06T06:05:33.320Z,98958.45
2022-11-06T06:06:35.939Z,98957.23
2022-11-06T06:07:37.866Z,98956.10
2022-11-06T06:08:39.577Z,98959.23
2022-11-06T06:09:41.469Z,98958.20
2022-11-06T06:10:44.613Z,98960.84
2022-11-06T06:11:46.314Z,98961.33
2022-11-06T06:12:51.168Z,98963.11
2022-11-06T06:13:52.881Z,98966.23
2022-11-06T06:14:54.626Z,98966.65
2022-11-06T06:16:01.653Z,98961.95
2022-11-06T06:17:03.424Z,98968.66
2022-11-06T06:18:06.236Z,98965.59
2022-11-06T06:19:07.953Z,98968.92
2022-11-06T06:20:10.427Z,98965.41
2022-11-06T06:21:12.256Z,98965.46
2022-11-06T06:22:14.031Z,98970.73
2022-11-06T06:23:15.855Z,98973.39
2022-11-06T06:24:17.605Z,98971.36
2022-11-06T06:25:22.906Z,98974.56
2022-11-06T06:26:24.947Z,98974.86
2022-11-06T06:27:27.595Z,98976.73
2022-11-06T06:28:29.440Z,98975.61
2022-11-06T06:29:31.160Z,98979.02
2022-11-06T06:30:33.028Z,98978.96
2022-11-06T06:31:34.894Z,98980.85
2022-11-06T06:32:36.592Z,98983.44
2022-11-06T06:33:38.344Z,98983.30
2022-11-06T06:34:40.061Z,98981.55
2022-11-06T06:35:41.877Z,98985.08
2022-11-06T06:36:43.803Z,98983.52
2022-11-06T06:37:53.607Z,98986.17
2022-11-06T06:38:55.862Z,98985.76
2022-11-06T06:39:57.613Z,98985.84
2022-11-06T06:41:04.882Z,98988.00
2022-11-06T06:42:06.667Z,98990.30
2022-11-06T06:43:08.457Z,98993.77
2022-11-06T06:44:10.338Z,98998.88
2022-11-06T06:45:12.062Z,98998.79
2022-11-06T06:46:13.748Z,99001.05
2022-11-06T06:47:19.134Z,99005.89
2022-11-06T06:48:20.878Z,99007.52
2022-11-06T06:49:22.624Z,99007.43
2022-11-06T06:50:24.372Z,99012.20
2022-11-06T06:51:26.105Z,99013.24
2022-11-06T06:52:27.846Z,99013.58
2022-11-06T06:53:30.008Z,99017.14
2022-11-06T06:54:31.742Z,99017.45
2022-11-06T06:55:33.500Z,99017.92
2022-11-06T06:56:35.221Z,99018.41
2022-11-06T06:57:36.948Z,99018.45
2022-11-06T06:58:38.893Z,99022.33
2022-11-06T06:59:40.649Z,99023.06
2022-11-06T07:00:42.443Z,99020.41
2022-11-06T07:01:44.364Z,99021.48
2022-11-06T07:02:46.161Z,99018.08
2022-11-06T07:03:47.893Z,99022.41
2022-11-06T07:04:49.647Z,99020.92
2022-11-06T07:05:51.390Z,99023.16
2022-11-06T07:06:54.500Z,99024.77
2022-11-06T07:07:57.952Z,99023.20
2022-11-06T07:08:59.805Z,99019.95
2022-11-06T07:10:01.638Z,99023.65
2022-11-06T07:11:07.045Z,99021.94
2022-11-06T07:12:08.756Z,99019.79
2022-11-06T07:13:10.789Z,99018.03
2022-11-06T07:14:13.054Z,99020.30
2022-11-06T07:15:15.228Z,99017.57
2022-11-06T07:16:17.064Z,99018.60
2022-11-06T07:17:18.784Z,99021.54
2022-11-06T07:18:20.874Z,99018.39
2022-11-06T07:19:22.738Z,99018.05
2022-11-06T07:20:24.665Z,99018.52
2022-11-06T07:21:26.396Z,99019.10
2022-11-06T07:22:35.527Z,99015.92
2022-11-06T07:23:39.035Z,99010.70
2022-11-06T07:24:40.837Z,99011.44
2022-11-06T07:25:42.799Z,99009.19
2022-11-06T07:26:44.862Z,99006.19
2022-11-06T07:27:46.592Z,99003.48
2022-11-06T07:28:48.375Z,99007.64
2022-11-06T07:29:50.116Z,99010.09
2022-11-06T07:30:51.912Z,99010.10
2022-11-06T07:31:53.664Z,99009.20
2022-11-06T07:32:55.427Z,99008.48
2022-11-06T07:33:57.109Z,99010.45
2022-11-06T07:34:58.862Z,99012.42
2022-11-06T07:36:09.741Z,99016.13
2022-11-06T07:37:11.452Z,99015.10
2022-11-06T07:38:13.454Z,99012.13
2022-11-06T07:39:15.388Z,99012.18
2022-11-06T07:40:17.302Z,99012.96
2022-11-06T07:41:19.034Z,99012.98
2022-11-06T07:42:20.717Z,99013.16
2022-11-06T07:43:33.526Z,99012.42
2022-11-06T07:44:35.588Z,99017.80
2022-11-06T07:45:38.899Z,99015.81
2022-11-06T07:46:40.624Z,99014.73
2022-11-06T07:47:42.393Z,99014.61
2022-11-06T07:48:44.120Z,99014.39
2022-11-06T07:49:50.730Z,99016.84
2022-11-06T07:50:52.978Z,99017.45
2022-11-06T07:51:54.641Z,99014.59
2022-11-06T07:52:56.955Z,99015.58
2022-11-06T07:53:58.643Z,99015.20
2022-11-06T07:55:00.599Z,99010.38
2022-11-06T07:56:02.759Z,99011.70
2022-11-06T07:57:04.509Z,99010.95
2022-11-06T07:58:06.215Z,99011.56
2022-11-06T07:59:07.933Z,99012.31
2022-11-06T08:00:10.691Z,99010.08
2022-11-06T08:01:18.966Z,99012.27
2022-11-06T08:02:21.174Z,99011.15
2022-11-06T08:03:25.122Z,99010.75
2022-11-06T08:04:26.871Z,99010.49
2022-11-06T08:05:28.587Z,99003.09
2022-11-06T08:06:30.427Z,99007.71
2022-11-06T08:07:32.157Z,99007.80
2022-11-06T08:08:33.874Z,99010.58
2022-11-06T08:09:35.988Z,99007.86
2022-11-06T08:10:40.548Z,99010.57
2022-11-06T08:11:43.000Z,99010.39
2022-11-06T08:12:44.718Z,99010.75
2022-11-06T08:13:46.412Z,99010.26
2022-11-06T08:14:48.164Z,99009.50
2022-11-06T08:15:49.931Z,99011.11
2022-11-06T08:16:51.748Z,99007.93
2022-11-06T08:17:53.891Z,99007.42
2022-11-06T08:18:55.990Z,99006.16
2022-11-06T08:19:57.734Z,99009.80
2022-11-06T08:20:59.651Z,99011.20
2022-11-06T08:22:01.768Z,99009.33
2022-11-06T08:23:05.955Z,99012.15
2022-11-06T08:24:07.776Z,99011.05
2022-11-06T08:25:09.803Z,99009.52
2022-11-06T08:26:12.599Z,99009.05
2022-11-06T08:27:14.318Z,99007.95
2022-11-06T08:28:16.216Z,99009.83
2022-11-06T08:29:18.290Z,99012.04
2022-11-06T08:30:20.042Z,99010.58
2022-11-06T08:31:21.861Z,99012.29
2022-11-06T08:32:23.754Z,99012.67
2022-11-06T08:33:25.574Z,99009.61
2022-11-06T08:34:27.317Z,99008.92
2022-11-06T08:35:29.316Z,99011.59
2022-11-06T08:36:31.248Z,99011.06
2022-11-06T08:37:33.025Z,99016.86
2022-11-06T08:38:35.431Z,99015.96
2022-11-06T08:39:37.392Z,99018.73
2022-11-06T08:40:39.987Z,99015.23
2022-11-06T08:41:42.078Z,99014.16
2022-11-06T08:42:44.184Z,99015.48
2022-11-06T08:43:45.972Z,99015.06
2022-11-06T08:44:47.736Z,99013.04
2022-11-06T08:45:49.436Z,99013.63
2022-11-06T08:46:52.323Z,99012.63
2022-11-06T08:47:54.273Z,99011.44
2022-11-06T08:48:55.980Z,99008.89
2022-11-06T08:49:58.106Z,99011.60
2022-11-06T08:50:59.929Z,99007.90
2022-11-06T08:52:01.612Z,99007.46
2022-11-06T08:53:04.378Z,99003.48
2022-11-06T08:54:06.541Z,99005.73
2022-11-06T08:55:08.664Z,99003.08
2022-11-06T08:56:10.357Z,99006.73
2022-11-06T08:57:12.023Z,99005.27
2022-11-06T08:58:14.108Z,99006.73
2022-11-06T08:59:15.847Z,99006.11
2022-11-06T09:00:17.883Z,99008.13
2022-11-06T09:01:19.780Z,99005.94
2022-11-06T09:02:21.669Z,99010.42
2022-11-06T09:03:23.517Z,99009.60
2022-11-06T09:04:25.203Z,99013.36
2022-11-06T09:05:27.999Z,99013.29
2022-11-06T09:06:29.847Z,99014.36
2022-11-06T09:07:31.626Z,99016.29
2022-11-06T09:08:33.319Z,99018.04
2022-11-06T09:09:35.115Z,99020.16
2022-11-06T09:10:39.088Z,99019.17
2022-11-06T09:11:40.810Z,99023.65
2022-11-06T09:12:42.498Z,99020.56
2022-11-06T09:13:44.478Z,99022.27
2022-11-06T09:14:46.172Z,99022.89
2022-11-06T09:15:47.860Z,99026.20
2022-11-06T09:16:49.566Z,99022.61
2022-11-06T09:17:51.799Z,99021.98
2022-11-06T09:18:57.503Z,99023.15
2022-11-06T09:19:59.384Z,99023.95
2022-11-06T09:21:01.182Z,99024.30
2022-11-06T09:22:02.879Z,99022.48
2022-11-06T09:23:06.993Z,99023.64
2022-11-06T09:24:09.188Z,99019.79
2022-11-06T09:25:11.627Z,99022.00
2022-11-06T09:26:13.329Z,99024.17
2022-11-06T09:27:15.159Z,99023.48
2022-11-06T09:28:17.028Z,99024.44
2022-11-06T09:29:18.716Z,99027.29
2022-11-06T09:30:22.974Z,99027.05
2022-11-06T09:31:24.681Z,99028.34
2022-11-06T09:32:26.363Z,99025.23
2022-11-06T09:33:28.061Z,99025.59
2022-11-06T09:34:30.191Z,99026.73
2022-11-06T09:35:34.075Z,99026.92
2022-11-06T09:36:36.420Z,99028.02
2022-11-06T09:37:38.140Z,99027.05
2022-11-06T09:38:39.831Z,99030.73
2022-11-06T09:39:41.714Z,99028.98
2022-11-06T09:40:49.107Z,99027.72
2022-11-06T09:42:49.280Z,99026.02
2022-11-06T09:44:19.234Z,99023.73
2022-11-06T09:45:26.709Z,99025.59
2022-11-06T09:46:45.679Z,99023.94
2022-11-06T09:48:00.187Z,99022.96
2022-11-06T09:49:13.608Z,99024.67
2022-11-06T09:50:22.298Z,99025.57
2022-11-06T09:51:42.063Z,99022.89
2022-11-06T09:52:51.755Z,99024.36
2022-11-06T09:54:01.369Z,99022.42
2022-11-06T09:55:10.851Z,99021.48
2022-11-06T09:56:14.657Z,99025.97
2022-11-06T09:57:21.785Z,99022.86
2022-11-06T09:58:32.950Z,99024.42
2022-11-06T09:59:37.465Z,99022.02
2022-11-06T10:00:40.381Z,99017.67
2022-11-06T10:01:47.670Z,99014.92
2022-11-06T10:03:02.669Z,99015.34
2022-11-06T10:04:05.844Z,99016.64
2022-11-06T10:05:21.892Z,99016.74
2022-11-06T10:06:25.765Z,99016.96
2022-11-06T10:07:33.436Z,99016.73
2022-11-06T10:08:35.634Z,99014.90
2022-11-06T10:09:37.473Z,99018.77
2022-11-06T10:10:50.483Z,99017.89
2022-11-06T10:12:05.093Z,99017.88
2022-11-06T10:13:27.088Z,99014.78
2022-11-06T10:14:47.557Z,99017.47
2022-11-06T10:16:22.502Z,99014.71
2022-11-06T10:18:05.939Z,99014.81
2022-11-06T10:19:34.774Z,99013.45
2022-11-06T10:20:54.957Z,99011.14
2022-11-06T10:22:16.469Z,99010.71
2022-11-06T10:23:27.062Z,99010.64
2022-11-06T10:24:44.131Z,99009.89
2022-11-06T10:26:05.022Z,99007.70
2022-11-06T10:27:18.794Z,99007.86
2022-11-06T10:28:40.109Z,99004.27
2022-11-06T10:30:18.934Z,99002.41
2022-11-06T10:31:48.298Z,99001.84
2022-11-06T10:33:27.508Z,99001.21
2022-11-06T10:34:36.148Z,98997.77
2022-11-06T10:35:47.213Z,98996.92
2022-11-06T10:36:55.304Z,98996.89
2022-11-06T10:38:18.239Z,98997.42
2022-11-06T10:39:25.084Z,98995.40
2022-11-06T10:40:31.520Z,98993.16
2022-11-06T10:41:38.011Z,98995.60
2022-11-06T10:42:41.990Z,98992.85
2022-11-06T10:43:53.092Z,98991.79
2022-11-06T10:45:05.841Z,98986.02
2022-11-06T10:46:25.163Z,98988.78
2022-11-06T10:47:43.461Z,98986.74
2022-11-06T10:48:52.055Z,98989.58
2022-11-06T10:50:01.788Z,98988.66
2022-11-06T10:51:42.049Z,98988.56
2022-11-06T10:52:51.540Z,98988.22
2022-11-06T10:54:29.680Z,98986.46
2022-11-06T10:55:44.512Z,98983.73
2022-11-06T10:57:20.859Z,98984.13
2022-11-06T10:58:28.057Z,98981.09
2022-11-06T10:59:30.276Z,98978.88
2022-11-06T11:00:33.857Z,98980.33
2022-11-06T11:01:38.349Z,98975.06
2022-11-06T11:02:58.515Z,98977.38
2022-11-06T11:04:01.068Z,98977.08
2022-11-06T11:05:02.929Z,98973.72
2022-11-06T11:06:05.444Z,98976.90
2022-11-06T11:07:20.543Z,98971.66
2022-11-06T11:08:40.435Z,98974.76
2022-11-06T11:09:42.443Z,98975.15
2022-11-06T11:10:55.903Z,98976.38
2022-11-06T11:12:05.930Z,98976.02
2022-11-06T11:13:20.921Z,98978.05
2022-11-06T11:14:26.236Z,98973.50
2022-11-06T11:15:33.671Z,98974.15
2022-11-06T11:16:39.975Z,98975.84
2022-11-06T11:17:43.213Z,98972.05
2022-11-06T11:18:49.882Z,98975.57
2022-11-06T11:19:51.567Z,98969.41
2022-11-06T11:21:27.788Z,98972.48
2022-11-06T11:22:33.114Z,98963.83
2022-11-06T11:23:35.218Z,98962.08
2022-11-06T11:24:36.894Z,98963.14
2022-11-06T11:25:38.654Z,98964.41
2022-11-06T11:26:47.172Z,98965.20
2022-11-06T11:27:49.015Z,98964.96
2022-11-06T11:28:55.361Z,98963.95
2022-11-06T11:29:58.366Z,98961.66
2022-11-06T11:31:13.613Z,98960.11
2022-11-06T11:32:20.063Z,98957.76
2022-11-06T11:33:26.173Z,98956.20
2022-11-06T11:34:32.665Z,98956.83
2022-11-06T11:35:36.576Z,98956.34
2022-11-06T11:37:21.892Z,98954.75
2022-11-06T11:38:26.011Z,98950.61
2022-11-06T11:39:34.388Z,98953.45
2022-11-06T11:40:38.533Z,98956.11
2022-11-06T11:41:40.250Z,98953.89
2022-11-06T11:42:41.992Z,98950.05
2022-11-06T11:43:44.081Z,98947.61
2022-11-06T11:44:45.833Z,98944.44
2022-11-06T11:46:17.617Z,98939.36
2022-11-06T11:47:24.537Z,98941.33
2022-11-06T11:48:26.313Z,98942.59
2022-11-06T11:49:33.812Z,98941.65
2022-11-06T11:50:36.286Z,98941.58
2022-11-06T11:51:44.866Z,98939.66
2022-11-06T11:52:52.821Z,98942.88
2022-11-06T11:54:06.589Z,98944.02
2022-11-06T11:55:18.848Z,98941.50
2022-11-06T11:56:49.611Z,98941.52
2022-11-06T11:57:48.735Z,98936.81
2022-11-06T11:58:55.160Z,98932.33
2022-11-06T12:00:05.634Z,98932.40
2022-11-06T12:01:09.243Z,98933.60
2022-11-06T12:02:27.902Z,98928.14
2022-11-06T12:03:52.285Z,98932.11
2022-11-06T12:04:59.884Z,98930.71
2022-11-06T12:06:12.702Z,98930.05
2022-11-06T12:07:32.585Z,98931.31
2022-11-06T12:08:34.892Z,98925.59
2022-11-06T12:09:44.227Z,98929.27
2022-11-06T12:10:46.465Z,98923.53
2022-11-06T12:11:48.577Z,98926.98
2022-11-06T12:12:53.007Z,98926.36
2022-11-06T12:14:26.231Z,98924.02
2022-11-06T12:15:31.453Z,98921.08
2022-11-06T12:16:33.171Z,98921.53
2022-11-06T12:17:40.571Z,98923.96
2022-11-06T12:18:55.971Z,98921.83
2022-11-06T12:20:03.368Z,98920.84
2022-11-06T12:21:20.032Z,98921.64
2022-11-06T12:22:33.900Z,98918.35
2022-11-06T12:23:51.514Z,98916.49
2022-11-06T12:25:00.891Z,98915.96
2022-11-06T12:26:22.658Z,98915.88
2022-11-06T12:27:34.747Z,98918.98
2022-11-06T12:28:40.937Z,98915.94
2022-11-06T12:30:03.312Z,98917.91
2022-11-06T12:31:25.988Z,98909.55
2022-11-06T12:33:01.245Z,98907.79
2022-11-06T12:34:16.972Z,98903.23
2022-11-06T12:35:37.680Z,98900.02
2022-11-06T12:36:46.367Z,98900.98
2022-11-06T12:37:59.923Z,98898.05
2022-11-06T12:39:10.418Z,98898.63
2022-11-06T12:40:25.075Z,98896.59
2022-11-06T12:41:32.104Z,98895.42
2022-11-06T12:42:36.209Z,98893.40
2022-11-06T12:43:42.774Z,98889.88
2022-11-06T12:44:47.781Z,98890.67
2022-11-06T12:46:02.728Z,98890.54
2022-11-06T12:47:41.587Z,98886.15
2022-11-06T12:49:08.403Z,98886.15
2022-11-06T12:50:36.549Z,98887.02
2022-11-06T12:52:09.219Z,98883.02
2022-11-06T12:53:31.745Z,98881.24
2022-11-06T12:55:00.827Z,98879.84
2022-11-06T12:56:47.053Z,98881.10
2022-11-06T12:58:15.364Z,98878.89
2022-11-06T12:59:36.543Z,98883.76
2022-11-06T13:01:11.789Z,98878.23
2022-11-06T13:02:22.632Z,98871.92
2022-11-06T13:04:00.754Z,98872.08
2022-11-06T13:05:15.325Z,98870.33
2022-11-06T13:06:55.572Z,98869.41
2022-11-06T13:08:15.835Z,98865.55
2022-11-06T13:09:26.574Z,98862.23
2022-11-06T13:10:31.236Z,98861.21
2022-11-06T13:11:47.044Z,98861.51
2022-11-06T13:13:15.107Z,98861.60
2022-11-06T13:14:30.517Z,98860.55
2022-11-06T13:15:49.696Z,98864.41
2022-11-06T13:17:17.564Z,98863.83
2022-11-06T13:18:28.077Z,98862.84
2022-11-06T13:19:48.764Z,98858.28
2022-11-06T13:21:06.664Z,98857.69
2022-11-06T13:22:36.004Z,98852.56